createdAt,value
2018-04-30T00:01:37.165Z,7.60
2018-04-30T00:04:04.776Z,9.83
2018-04-30T00:06:33.177Z,8.97
2018-04-30T00:09:00.751Z,7.93
2018-04-30T00:11:28.381Z,7.80
2018-04-30T00:13:56.781Z,6.93
2018-04-30T00:16:24.434Z,7.27
2018-04-30T00:18:52.074Z,6.60
2018-04-30T00:21:20.423Z,7.10
2018-04-30T00:23:48.061Z,9.97
2018-04-30T00:26:15.679Z,11.40
2018-04-30T00:28:44.075Z,9.97
2018-04-30T00:31:12.255Z,10.10
2018-04-30T00:33:39.940Z,7.80
2018-04-30T00:36:08.311Z,7.80
2018-04-30T00:38:35.926Z,9.70
2018-04-30T00:41:04.315Z,8.77
2018-04-30T00:43:31.941Z,8.03
2018-04-30T00:45:59.564Z,7.67
2018-04-30T00:48:27.139Z,9.60
2018-04-30T00:50:54.867Z,11.67
2018-04-30T00:53:22.454Z,8.70
2018-04-30T00:55:50.137Z,9.77
2018-04-30T00:58:17.771Z,11.50
2018-04-30T01:00:45.509Z,9.13
2018-04-30T01:03:13.180Z,9.90
2018-04-30T01:05:40.787Z,10.17
2018-04-30T01:08:08.484Z,10.47
2018-04-30T01:10:37.334Z,13.03
2018-04-30T01:13:05.013Z,10.07
2018-04-30T01:15:33.455Z,10.67
2018-04-30T01:18:01.452Z,10.63
2018-04-30T01:20:29.068Z,13.10
2018-04-30T01:22:56.717Z,12.83
2018-04-30T01:25:24.341Z,10.90
2018-04-30T01:27:51.947Z,10.63
2018-04-30T01:30:19.614Z,9.27
2018-04-30T01:32:47.889Z,12.90
2018-04-30T01:35:15.566Z,13.40
2018-04-30T01:37:43.225Z,11.83
2018-04-30T01:40:10.816Z,9.53
2018-04-30T01:42:39.254Z,12.67
2018-04-30T01:45:06.841Z,10.90
2018-04-30T01:47:34.434Z,13.67
2018-04-30T01:50:02.840Z,9.93
2018-04-30T01:52:30.467Z,10.57
2018-04-30T01:54:58.921Z,13.83
2018-04-30T01:57:26.512Z,12.57
2018-04-30T01:59:54.912Z,11.43
2018-04-30T02:02:22.550Z,11.03
2018-04-30T02:04:50.917Z,11.40
2018-04-30T02:07:19.330Z,12.43
2018-04-30T02:09:46.964Z,11.40
2018-04-30T02:12:15.394Z,11.27
2018-04-30T02:14:43.026Z,13.03
2018-04-30T02:17:10.674Z,11.37
2018-04-30T02:19:38.425Z,11.73
2018-04-30T02:22:06.789Z,15.10
2018-04-30T02:24:35.201Z,13.50
2018-04-30T02:27:02.849Z,15.07
2018-04-30T02:29:31.452Z,15.60
2018-04-30T02:31:59.153Z,12.93
2018-04-30T02:34:26.801Z,12.20
2018-04-30T02:36:54.424Z,15.43
2018-04-30T02:39:23.633Z,12.70
2018-04-30T02:41:51.315Z,12.80
2018-04-30T02:44:18.988Z,14.10
2018-04-30T02:46:46.675Z,14.57
2018-04-30T02:49:15.103Z,15.13
2018-04-30T02:51:42.753Z,13.53
2018-04-30T02:54:10.341Z,13.23
2018-04-30T02:56:38.019Z,13.73
2018-04-30T02:59:05.652Z,12.40
2018-04-30T03:01:33.280Z,12.40
2018-04-30T03:04:01.719Z,12.57
2018-04-30T03:06:30.132Z,12.70
2018-04-30T03:08:58.555Z,12.50
2018-04-30T03:11:26.206Z,11.93
2018-04-30T03:13:53.835Z,14.03
2018-04-30T03:16:22.216Z,13.27
2018-04-30T03:18:49.938Z,10.80
2018-04-30T03:21:17.564Z,10.67
2018-04-30T03:23:45.248Z,13.87
2018-04-30T03:26:12.894Z,13.33
2018-04-30T03:28:40.561Z,12.60
2018-04-30T03:31:08.141Z,12.10
2018-04-30T03:33:35.724Z,11.80
2018-04-30T03:36:03.389Z,11.67
2018-04-30T03:38:31.960Z,11.63
2018-04-30T03:41:00.353Z,10.73
2018-04-30T03:43:28.784Z,10.67
2018-04-30T03:45:56.402Z,11.93
2018-04-30T03:48:24.045Z,10.37
2018-04-30T03:50:52.430Z,11.40
2018-04-30T03:53:21.900Z,11.73
2018-04-30T03:55:49.541Z,10.33
2018-04-30T03:58:17.156Z,12.47
2018-04-30T04:00:57.565Z,12.33
2018-04-30T04:03:37.039Z,12.30
2018-04-30T04:06:18.378Z,8.43
2018-04-30T04:08:45.981Z,9.77
2018-04-30T04:11:13.647Z,13.63
2018-04-30T04:13:42.049Z,12.83
2018-04-30T04:16:10.487Z,13.63
2018-04-30T04:18:38.195Z,13.53
2018-04-30T04:21:05.788Z,11.17
2018-04-30T04:23:33.462Z,10.90
2018-04-30T04:26:01.738Z,8.73
2018-04-30T04:28:29.409Z,8.87
2018-04-30T04:30:57.780Z,11.00
2018-04-30T04:33:25.355Z,9.37
2018-04-30T04:35:53.772Z,12.70
2018-04-30T04:38:22.117Z,12.83
2018-04-30T04:40:50.510Z,9.93
2018-04-30T04:43:18.160Z,11.33
2018-04-30T04:45:46.576Z,10.77
2018-04-30T04:48:14.196Z,12.60
2018-04-30T04:50:42.594Z,10.53
2018-04-30T04:53:11.012Z,10.60
2018-04-30T04:55:38.674Z,10.57
2018-04-30T04:58:06.261Z,11.43
2018-04-30T05:00:34.576Z,8.93
2018-04-30T05:03:02.229Z,11.53
2018-04-30T05:05:29.891Z,11.17
2018-04-30T05:07:57.546Z,8.47
2018-04-30T05:10:25.234Z,8.37
2018-04-30T05:12:52.862Z,11.73
2018-04-30T05:15:21.390Z,10.53
2018-04-30T05:17:48.997Z,8.30
2018-04-30T05:20:16.613Z,10.37
2018-04-30T05:22:44.274Z,9.93
2018-04-30T05:25:11.968Z,12.87
2018-04-30T05:27:39.677Z,7.47
2018-04-30T05:30:07.463Z,9.73
2018-04-30T05:32:36.530Z,10.33
2018-04-30T05:35:04.219Z,15.37
2018-04-30T05:37:31.858Z,15.00
2018-04-30T05:39:59.662Z,15.87
2018-04-30T05:42:27.353Z,15.17
2018-04-30T05:44:55.773Z,12.23
2018-04-30T05:47:23.424Z,13.90
2018-04-30T05:49:51.750Z,15.20
2018-04-30T05:52:19.335Z,14.20
2018-04-30T05:54:47.723Z,11.57
2018-04-30T05:57:16.098Z,11.93
2018-04-30T05:59:44.462Z,15.57
2018-04-30T06:02:12.877Z,12.17
2018-04-30T06:04:40.484Z,11.00
2018-04-30T06:07:08.181Z,12.27
2018-04-30T06:09:35.771Z,10.27
2018-04-30T06:12:03.406Z,16.10
2018-04-30T06:14:31.038Z,11.30
2018-04-30T06:16:59.490Z,12.23
2018-04-30T06:19:27.081Z,13.83
2018-04-30T06:21:55.470Z,10.47
2018-04-30T06:24:23.960Z,11.97
2018-04-30T06:26:51.612Z,9.93
2018-04-30T06:29:19.185Z,12.73
2018-04-30T06:31:46.804Z,13.33
2018-04-30T06:34:14.467Z,11.80
2018-04-30T06:36:42.093Z,12.13
2018-04-30T06:39:09.748Z,12.63
2018-04-30T06:41:37.319Z,13.37
2018-04-30T06:44:04.971Z,15.73
2018-04-30T06:46:32.596Z,13.57
2018-04-30T06:49:01.034Z,13.53
2018-04-30T06:51:28.848Z,11.70
2018-04-30T06:53:56.484Z,15.27
2018-04-30T06:56:24.880Z,12.23
2018-04-30T06:58:52.495Z,16.87
2018-04-30T07:01:20.128Z,11.67
2018-04-30T07:03:47.748Z,12.87
2018-04-30T07:06:15.389Z,11.37
2018-04-30T07:08:43.013Z,12.90
2018-04-30T07:11:11.265Z,10.97
2018-04-30T07:13:38.856Z,10.50
2018-04-30T07:16:06.450Z,12.93
2018-04-30T07:18:34.088Z,15.60
2018-04-30T07:21:01.717Z,17.43
2018-04-30T07:23:30.136Z,12.10
2018-04-30T07:25:57.731Z,15.57
2018-04-30T07:28:26.152Z,10.47
2018-04-30T07:30:54.018Z,16.63
2018-04-30T07:33:21.777Z,15.37
2018-04-30T07:35:49.986Z,12.77
2018-04-30T07:38:17.696Z,14.97
2018-04-30T07:43:19.992Z,11.87
2018-04-30T07:45:47.845Z,14.10
2018-04-30T07:48:15.526Z,13.80
2018-04-30T07:50:43.145Z,13.40
2018-04-30T07:53:11.573Z,14.50
2018-04-30T07:55:39.776Z,18.63
2018-04-30T07:58:07.465Z,16.60
2018-04-30T08:00:35.892Z,12.87
2018-04-30T08:03:03.583Z,15.50
2018-04-30T08:05:31.133Z,16.83
2018-04-30T08:07:58.777Z,15.47
2018-04-30T08:10:26.402Z,11.53
2018-04-30T08:12:54.056Z,13.97
2018-04-30T08:15:21.710Z,13.97
2018-04-30T08:17:49.342Z,19.27
2018-04-30T08:20:16.935Z,18.53
2018-04-30T08:22:45.311Z,16.00
2018-04-30T08:25:13.933Z,14.33
2018-04-30T08:27:41.659Z,13.40
2018-04-30T08:30:09.326Z,15.80
2018-04-30T08:32:36.920Z,14.33
2018-04-30T08:35:04.548Z,14.67
2018-04-30T08:37:32.157Z,19.07
2018-04-30T08:39:59.767Z,18.03
2018-04-30T08:42:27.350Z,13.43
2018-04-30T08:44:54.967Z,17.57
2018-04-30T08:47:22.625Z,15.90
2018-04-30T08:49:51.045Z,16.60
2018-04-30T08:52:18.896Z,16.30
2018-04-30T08:54:46.491Z,16.47
2018-04-30T08:57:14.075Z,15.83
2018-04-30T08:59:42.452Z,16.50
2018-04-30T09:02:10.875Z,15.97
2018-04-30T09:04:38.452Z,21.83
2018-04-30T09:07:06.090Z,22.70
2018-04-30T09:09:35.132Z,14.40
2018-04-30T09:12:02.946Z,18.67
2018-04-30T09:14:30.537Z,16.90
2018-04-30T09:16:58.168Z,15.37
2018-04-30T09:19:25.790Z,14.47
2018-04-30T09:21:54.176Z,25.43
2018-04-30T09:24:22.599Z,61.33
2018-04-30T09:26:50.189Z,19.47
2018-04-30T09:29:17.941Z,13.53
2018-04-30T09:31:45.562Z,12.53
2018-04-30T09:34:13.153Z,17.90
2018-04-30T09:36:41.384Z,15.07
2018-04-30T09:39:08.967Z,13.57
2018-04-30T09:41:36.589Z,12.43
2018-04-30T09:44:04.975Z,15.10
2018-04-30T09:46:33.389Z,13.43
2018-04-30T09:49:01.011Z,14.63
2018-04-30T09:51:29.458Z,11.20
2018-04-30T09:53:57.038Z,16.80
2018-04-30T09:56:24.669Z,17.07
2018-04-30T09:58:52.295Z,20.33
2018-04-30T10:01:19.930Z,17.17
2018-04-30T10:03:48.320Z,21.10
2018-04-30T10:06:16.663Z,16.07
2018-04-30T10:08:44.517Z,15.43
2018-04-30T10:11:12.941Z,17.03
2018-04-30T10:13:40.713Z,16.77
2018-04-30T10:16:09.045Z,15.30
2018-04-30T10:18:38.432Z,14.57
2018-04-30T10:21:06.073Z,14.60
2018-04-30T10:23:33.791Z,14.70
2018-04-30T10:26:01.404Z,15.93
2018-04-30T10:28:29.075Z,18.40
2018-04-30T10:30:56.825Z,22.67
2018-04-30T10:33:24.438Z,15.00
2018-04-30T10:38:26.727Z,17.43
2018-04-30T10:40:55.102Z,16.83
2018-04-30T10:43:23.452Z,9.10
2018-04-30T10:45:52.004Z,14.13
2018-04-30T10:48:19.516Z,10.93
2018-04-30T10:50:47.992Z,11.20
2018-04-30T10:53:16.335Z,11.40
2018-04-30T10:55:44.444Z,8.33
2018-04-30T10:58:12.823Z,9.50
2018-04-30T11:00:41.196Z,7.87
2018-04-30T11:03:09.577Z,14.40
2018-04-30T11:05:37.980Z,7.27
2018-04-30T11:08:05.555Z,17.10
2018-04-30T11:10:33.189Z,8.53
2018-04-30T11:13:00.834Z,12.27
2018-04-30T11:15:29.184Z,9.43
2018-04-30T11:17:56.804Z,7.47
2018-04-30T11:20:24.468Z,8.83
2018-04-30T11:22:52.100Z,8.33
2018-04-30T11:25:20.704Z,7.87
2018-04-30T11:27:48.311Z,7.57
2018-04-30T11:30:15.964Z,7.70
2018-04-30T11:32:43.585Z,5.27
2018-04-30T11:35:11.186Z,6.43
2018-04-30T11:37:38.813Z,5.80
2018-04-30T11:40:06.463Z,8.27
2018-04-30T11:44:55.888Z,4.10
2018-04-30T11:47:24.255Z,7.27
2018-04-30T11:49:51.861Z,10.10
2018-04-30T11:52:19.522Z,10.83
2018-04-30T11:54:48.050Z,6.80
2018-04-30T11:57:15.644Z,7.63
2018-04-30T11:59:43.285Z,5.43
2018-04-30T12:02:10.895Z,7.57
2018-04-30T12:04:39.274Z,5.27
2018-04-30T12:07:06.880Z,4.60
2018-04-30T12:09:34.535Z,5.00
2018-04-30T12:12:02.245Z,3.50
2018-04-30T12:14:30.597Z,6.03
2018-04-30T12:16:58.238Z,6.60
2018-04-30T12:19:25.905Z,5.30
2018-04-30T12:21:53.628Z,5.20
2018-04-30T12:24:21.150Z,3.60
2018-04-30T12:26:48.828Z,7.70
2018-04-30T12:29:16.467Z,10.20
2018-04-30T12:31:44.051Z,4.80
2018-04-30T12:34:12.453Z,6.63
2018-04-30T12:36:40.113Z,5.90
2018-04-30T12:39:07.990Z,5.10
2018-04-30T12:41:35.568Z,2.53
2018-04-30T12:44:03.222Z,4.13
2018-04-30T12:46:30.855Z,1.87
2018-04-30T12:48:58.507Z,2.67
2018-04-30T12:51:26.133Z,3.63
2018-04-30T12:53:53.831Z,4.90
2018-04-30T12:56:21.569Z,3.00
2018-04-30T12:58:49.978Z,5.27
2018-04-30T13:01:17.593Z,3.07
2018-04-30T13:03:46.757Z,4.37
2018-04-30T13:06:14.371Z,3.33
2018-04-30T13:08:42.820Z,3.20
2018-04-30T13:11:10.429Z,7.80
2018-04-30T13:13:38.088Z,3.90
2018-04-30T13:16:06.498Z,4.67
2018-04-30T13:18:34.161Z,4.77
2018-04-30T13:21:02.155Z,2.93
2018-04-30T13:23:29.761Z,6.97
2018-04-30T13:25:57.380Z,2.60
2018-04-30T13:28:25.729Z,4.40
2018-04-30T13:30:53.941Z,1.73
2018-04-30T13:33:22.332Z,6.17
2018-04-30T13:36:00.625Z,3.20
2018-04-30T13:38:28.284Z,7.43
2018-04-30T13:40:55.979Z,4.27
2018-04-30T13:43:24.963Z,1.60
2018-04-30T13:45:53.362Z,3.70
2018-04-30T13:48:23.006Z,3.57
2018-04-30T13:50:50.831Z,4.97
2018-04-30T13:53:18.500Z,2.60
2018-04-30T13:55:46.184Z,3.90
2018-04-30T13:58:13.810Z,2.30
2018-04-30T14:00:41.421Z,2.27
2018-04-30T14:03:09.759Z,2.90
2018-04-30T14:05:37.388Z,2.77
2018-04-30T14:08:05.811Z,5.87
2018-04-30T14:10:33.452Z,3.30
2018-04-30T14:13:01.025Z,6.53
2018-04-30T14:15:28.699Z,7.20
2018-04-30T14:17:56.370Z,2.47
2018-04-30T14:20:24.072Z,4.10
2018-04-30T14:22:52.433Z,3.20
2018-04-30T14:25:20.072Z,6.27
2018-04-30T14:27:47.655Z,4.43
2018-04-30T14:30:16.815Z,7.23
2018-04-30T14:32:44.428Z,12.97
2018-04-30T14:35:12.779Z,11.90
2018-04-30T14:37:40.424Z,12.27
2018-04-30T14:40:08.046Z,3.77
2018-04-30T14:42:35.735Z,4.10
2018-04-30T14:45:03.319Z,2.80
2018-04-30T14:47:30.901Z,5.30
2018-04-30T14:49:59.522Z,18.27
2018-04-30T14:52:27.848Z,21.00
2018-04-30T14:54:56.251Z,4.67
2018-04-30T14:57:23.899Z,3.47
2018-04-30T14:59:52.329Z,6.70
2018-04-30T15:02:19.917Z,7.30
2018-04-30T15:04:48.133Z,5.60
2018-04-30T15:07:15.735Z,5.47
2018-04-30T15:09:43.391Z,9.30
2018-04-30T15:12:10.984Z,9.67
2018-04-30T15:14:39.398Z,2.10
2018-04-30T15:17:07.011Z,8.40
2018-04-30T15:19:36.203Z,4.93
2018-04-30T15:22:03.804Z,4.53
2018-04-30T15:24:32.222Z,6.13
2018-04-30T15:26:59.795Z,4.90
2018-04-30T15:29:27.456Z,5.53
2018-04-30T15:31:56.134Z,2.33
2018-04-30T15:34:23.780Z,1.50
2018-04-30T15:36:51.421Z,4.50
2018-04-30T15:39:19.055Z,6.97
2018-04-30T15:41:47.420Z,4.40
2018-04-30T15:44:15.050Z,3.10
2018-04-30T15:46:42.703Z,3.70
2018-04-30T15:49:10.342Z,5.33
2018-04-30T15:51:37.955Z,4.77
2018-04-30T15:54:05.648Z,7.03
2018-04-30T15:56:33.295Z,5.70
2018-04-30T15:59:00.917Z,2.00
2018-04-30T16:01:28.521Z,4.93
2018-04-30T16:03:56.193Z,7.20
2018-04-30T16:06:23.816Z,7.53
2018-04-30T16:08:52.267Z,5.37
2018-04-30T16:11:19.907Z,3.20
2018-04-30T16:13:47.718Z,1.70
2018-04-30T16:16:16.119Z,2.47
2018-04-30T16:18:44.524Z,4.60
2018-04-30T16:21:12.156Z,3.17
2018-04-30T16:23:40.566Z,1.90
2018-04-30T16:26:08.824Z,3.00
2018-04-30T16:28:37.250Z,2.83
2018-04-30T16:31:04.997Z,4.40
2018-04-30T16:33:32.681Z,3.50
2018-04-30T16:36:00.913Z,3.80
2018-04-30T16:38:28.559Z,4.43
2018-04-30T16:40:58.044Z,4.87
2018-04-30T16:43:25.816Z,5.70
2018-04-30T16:45:53.404Z,4.37
2018-04-30T16:48:21.024Z,4.27
2018-04-30T16:50:48.741Z,4.17
2018-04-30T16:53:16.380Z,5.27
2018-04-30T16:55:45.373Z,4.97
2018-04-30T16:58:13.756Z,3.43
2018-04-30T17:00:41.391Z,1.83
2018-04-30T17:03:09.024Z,4.50
2018-04-30T17:05:37.514Z,4.87
2018-04-30T17:08:05.098Z,3.37
2018-04-30T17:10:33.590Z,4.67
2018-04-30T17:13:01.265Z,5.10
2018-04-30T17:15:28.922Z,2.87
2018-04-30T17:17:56.545Z,2.30
2018-04-30T17:20:24.247Z,4.50
2018-04-30T17:22:51.895Z,2.63
2018-04-30T17:25:19.520Z,1.63
2018-04-30T17:27:50.181Z,3.70
2018-04-30T17:30:19.595Z,3.53
2018-04-30T17:32:47.198Z,3.63
2018-04-30T17:35:14.916Z,3.33
2018-04-30T17:37:42.666Z,4.73
2018-04-30T17:40:11.955Z,4.40
2018-04-30T17:42:40.359Z,2.50
2018-04-30T17:45:08.783Z,2.77
2018-04-30T17:47:37.163Z,4.87
2018-04-30T17:50:04.796Z,4.53
2018-04-30T17:52:32.454Z,3.77
2018-04-30T17:55:00.079Z,2.97
2018-04-30T17:57:28.453Z,4.80
2018-04-30T17:59:56.977Z,3.27
2018-04-30T18:02:24.567Z,2.63
2018-04-30T18:04:52.561Z,3.03
2018-04-30T18:07:20.973Z,5.30
2018-04-30T18:09:48.603Z,3.53
2018-04-30T18:12:16.228Z,4.60
2018-04-30T18:14:43.911Z,4.20
2018-04-30T18:17:11.540Z,3.30
2018-04-30T18:19:39.179Z,3.70
2018-04-30T18:22:06.859Z,4.13
2018-04-30T18:24:34.483Z,2.83
2018-04-30T18:27:02.133Z,5.27
2018-04-30T18:29:30.569Z,3.87
2018-04-30T18:31:58.156Z,5.50
2018-04-30T18:34:25.846Z,3.20
2018-04-30T18:36:53.527Z,6.03
2018-04-30T18:39:21.146Z,5.77
2018-04-30T18:41:48.756Z,5.17
2018-04-30T18:44:16.411Z,4.87
2018-04-30T18:46:44.051Z,4.97
2018-04-30T18:49:11.674Z,4.90
2018-04-30T18:51:39.347Z,5.47
2018-04-30T18:54:07.770Z,7.13
2018-04-30T18:56:35.408Z,7.03
2018-04-30T18:59:03.060Z,6.13
2018-04-30T19:01:31.418Z,6.20
2018-04-30T19:03:59.088Z,7.77
2018-04-30T19:06:27.523Z,7.77
2018-04-30T19:08:57.849Z,5.73
2018-04-30T19:11:25.863Z,7.77
2018-04-30T19:13:53.494Z,4.87
2018-04-30T19:16:21.119Z,6.13
2018-04-30T19:18:48.828Z,6.77
2018-04-30T19:21:20.189Z,7.50
2018-04-30T19:23:48.581Z,7.97
2018-04-30T19:26:16.989Z,6.73
2018-04-30T19:28:45.229Z,7.40
2018-04-30T19:31:12.981Z,8.27
2018-04-30T19:33:41.454Z,6.17
2018-04-30T19:36:09.086Z,6.13
2018-04-30T19:38:36.782Z,8.90
2018-04-30T19:41:04.501Z,8.23
2018-04-30T19:43:32.157Z,9.80
2018-04-30T19:45:59.777Z,7.87
2018-04-30T19:48:28.330Z,7.57
2018-04-30T19:50:56.011Z,9.27
2018-04-30T19:53:23.677Z,6.03
2018-04-30T19:55:52.119Z,4.93
2018-04-30T19:58:19.778Z,5.80
2018-04-30T20:00:47.803Z,6.23
2018-04-30T20:03:16.308Z,6.73
2018-04-30T20:05:44.080Z,4.83
2018-04-30T20:08:11.683Z,4.73
2018-04-30T20:10:39.305Z,5.70
2018-04-30T20:13:10.740Z,7.50
2018-04-30T20:15:38.420Z,5.53
2018-04-30T20:18:06.183Z,9.70
2018-04-30T20:20:33.964Z,9.00
2018-04-30T20:23:01.626Z,10.20
2018-04-30T20:25:30.173Z,6.17
2018-04-30T20:27:57.915Z,7.83
2018-04-30T20:30:25.583Z,8.00
2018-04-30T20:32:53.878Z,8.43
2018-04-30T20:35:21.575Z,5.13
2018-04-30T20:37:49.302Z,4.87
2018-04-30T20:40:17.020Z,4.23
2018-04-30T20:42:46.304Z,6.83
2018-04-30T20:45:14.754Z,9.63
2018-04-30T20:47:42.415Z,7.50
2018-04-30T20:50:10.036Z,7.40
2018-04-30T20:52:38.501Z,13.17
2018-04-30T20:55:06.868Z,7.90
2018-04-30T20:57:35.743Z,6.93
2018-04-30T21:00:03.660Z,8.57
2018-04-30T21:02:31.322Z,8.67
2018-04-30T21:04:59.821Z,8.37
2018-04-30T21:07:27.481Z,9.13
2018-04-30T21:09:55.063Z,6.97
2018-04-30T21:12:22.697Z,8.37
2018-04-30T21:14:50.349Z,10.23
2018-04-30T21:17:17.972Z,6.43
2018-04-30T21:19:46.493Z,7.57
2018-04-30T21:22:14.137Z,8.80
2018-04-30T21:24:43.172Z,7.47
2018-04-30T21:27:10.824Z,8.70
2018-04-30T21:29:38.489Z,6.60
2018-04-30T21:32:06.089Z,7.43
2018-04-30T21:34:33.772Z,10.80
2018-04-30T21:37:01.424Z,9.07
2018-04-30T21:39:29.857Z,9.00
2018-04-30T21:41:57.554Z,8.50
2018-04-30T21:44:25.947Z,9.40
2018-04-30T21:46:54.396Z,7.77
2018-04-30T21:49:22.013Z,9.97
2018-04-30T21:51:49.673Z,7.57
2018-04-30T21:54:17.263Z,6.33
2018-04-30T21:56:44.926Z,11.37
2018-04-30T21:59:12.556Z,13.90
2018-04-30T22:01:40.172Z,7.43
2018-04-30T22:04:08.026Z,5.10
2018-04-30T22:06:36.581Z,5.10
2018-04-30T22:09:04.269Z,5.93
2018-04-30T22:11:31.912Z,4.20
2018-04-30T22:13:59.559Z,5.13
2018-04-30T22:16:27.311Z,7.57
2018-04-30T22:18:54.909Z,8.13
2018-04-30T22:21:22.619Z,10.03
2018-04-30T22:23:50.266Z,9.70
2018-04-30T22:26:18.658Z,15.03
2018-04-30T22:28:46.329Z,21.43
2018-04-30T22:31:13.919Z,21.70
2018-04-30T22:33:41.576Z,11.87
2018-04-30T22:36:09.215Z,23.70
2018-04-30T22:38:36.865Z,49.03
2018-04-30T22:41:04.514Z,11.00
2018-04-30T22:43:32.188Z,15.13
2018-04-30T22:45:59.794Z,10.57
2018-04-30T22:48:27.523Z,7.83
2018-04-30T22:50:55.208Z,9.33
2018-04-30T22:53:22.959Z,8.90
2018-04-30T22:55:50.599Z,6.27
2018-04-30T22:58:18.249Z,5.80
2018-04-30T23:00:45.899Z,7.77
2018-04-30T23:03:14.449Z,5.43
2018-04-30T23:05:43.270Z,6.77
2018-04-30T23:08:12.733Z,7.03
2018-04-30T23:10:40.493Z,6.67
2018-04-30T23:13:08.285Z,6.07
2018-04-30T23:15:36.666Z,10.87
2018-04-30T23:18:04.377Z,6.40
2018-04-30T23:20:32.024Z,5.40
2018-04-30T23:22:59.608Z,8.80
2018-04-30T23:25:27.270Z,7.93
2018-04-30T23:27:54.862Z,6.00
2018-04-30T23:30:23.259Z,7.93
2018-04-30T23:32:50.892Z,7.10
2018-04-30T23:35:18.473Z,6.00
2018-04-30T23:37:46.911Z,7.37
2018-04-30T23:40:14.535Z,7.43
2018-04-30T23:42:42.724Z,7.37
2018-04-30T23:45:10.334Z,8.17
2018-04-30T23:47:37.987Z,7.17
2018-04-30T23:50:05.622Z,7.43
2018-04-30T23:52:33.358Z,8.60
2018-04-30T23:55:01.183Z,8.17
2018-04-30T23:57:29.576Z,7.03
2018-04-30T23:59:57.980Z,7.17
